sensor_id;sensor_type;location;lat;lon;timestamp;temperature;humidity
31799;DHT22;18374;51.136;3.502;2023-06-14T00:02:05;19.30;99.50
31799;DHT22;18374;51.136;3.502;2023-06-14T00:04:36;19.20;99.90
31799;DHT22;18374;51.136;3.502;2023-06-14T00:07:05;19.30;99.90
31799;DHT22;18374;51.136;3.502;2023-06-14T00:09:38;19.30;99.90
31799;DHT22;18374;51.136;3.502;2023-06-14T00:12:06;19.20;99.90
31799;DHT22;18374;51.136;3.502;2023-06-14T00:14:36;19.20;99.90
31799;DHT22;18374;51.136;3.502;2023-06-14T00:17:04;19.10;99.90
31799;DHT22;18374;51.136;3.502;2023-06-14T00:19:31;19.10;99.90
31799;DHT22;18374;51.136;3.502;2023-06-14T00:22:00;19.10;99.90
31799;DHT22;18374;51.136;3.502;2023-06-14T00:24:28;19.20;99.90
31799;DHT22;18374;51.136;3.502;2023-06-14T00:26:56;19.10;99.90
31799;DHT22;18374;51.136;3.502;2023-06-14T00:29:24;19.10;99.90
31799;DHT22;18374;51.136;3.502;2023-06-14T00:31:55;19.00;99.90
31799;DHT22;18374;51.136;3.502;2023-06-14T00:34:22;19.00;99.90
31799;DHT22;18374;51.136;3.502;2023-06-14T00:36:50;19.00;99.90
31799;DHT22;18374;51.136;3.502;2023-06-14T00:39:18;18.90;99.90
31799;DHT22;18374;51.136;3.502;2023-06-14T00:41:46;18.80;99.90
31799;DHT22;18374;51.136;3.502;2023-06-14T00:44:16;18.70;99.90
31799;DHT22;18374;51.136;3.502;2023-06-14T00:46:48;18.60;99.90
31799;DHT22;18374;51.136;3.502;2023-06-14T00:49:17;18.60;99.90
31799;DHT22;18374;51.136;3.502;2023-06-14T00:51:47;18.60;99.90
31799;DHT22;18374;51.136;3.502;2023-06-14T00:54:14;18.60;99.90
31799;DHT22;18374;51.136;3.502;2023-06-14T00:56:44;18.60;99.90
31799;DHT22;18374;51.136;3.502;2023-06-14T00:59:12;18.60;99.90
31799;DHT22;18374;51.136;3.502;2023-06-14T01:01:40;18.60;99.90
31799;DHT22;18374;51.136;3.502;2023-06-14T01:04:08;18.70;99.90
31799;DHT22;18374;51.136;3.502;2023-06-14T01:06:59;18.60;99.90
31799;DHT22;18374;51.136;3.502;2023-06-14T01:15:59;18.40;99.90
31799;DHT22;18374;51.136;3.502;2023-06-14T01:18:28;18.30;99.90
31799;DHT22;18374;51.136;3.502;2023-06-14T01:20:57;18.30;99.90
31799;DHT22;18374;51.136;3.502;2023-06-14T01:23:25;18.20;99.90
31799;DHT22;18374;51.136;3.502;2023-06-14T01:26:00;18.10;99.90
31799;DHT22;18374;51.136;3.502;2023-06-14T01:28:31;18.10;99.90
31799;DHT22;18374;51.136;3.502;2023-06-14T01:31:02;18.00;99.90
31799;DHT22;18374;51.136;3.502;2023-06-14T01:33:35;18.00;99.90
31799;DHT22;18374;51.136;3.502;2023-06-14T01:36:05;17.90;99.90
31799;DHT22;18374;51.136;3.502;2023-06-14T01:38:34;17.90;99.90
31799;DHT22;18374;51.136;3.502;2023-06-14T01:41:04;17.70;99.90
31799;DHT22;18374;51.136;3.502;2023-06-14T01:43:33;17.80;99.90
31799;DHT22;18374;51.136;3.502;2023-06-14T01:46:06;17.70;99.90
31799;DHT22;18374;51.136;3.502;2023-06-14T01:48:34;17.60;99.90
31799;DHT22;18374;51.136;3.502;2023-06-14T01:51:03;17.70;99.90
31799;DHT22;18374;51.136;3.502;2023-06-14T01:53:31;17.70;99.90
31799;DHT22;18374;51.136;3.502;2023-06-14T01:55:59;17.70;99.90
31799;DHT22;18374;51.136;3.502;2023-06-14T01:58:30;17.80;99.90
31799;DHT22;18374;51.136;3.502;2023-06-14T02:00:59;17.80;99.90
31799;DHT22;18374;51.136;3.502;2023-06-14T02:03:32;17.80;99.90
31799;DHT22;18374;51.136;3.502;2023-06-14T02:06:00;17.80;99.90
31799;DHT22;18374;51.136;3.502;2023-06-14T02:08:28;17.80;99.90
31799;DHT22;18374;51.136;3.502;2023-06-14T02:10:58;17.70;99.90
31799;DHT22;18374;51.136;3.502;2023-06-14T02:13:26;17.70;99.90
31799;DHT22;18374;51.136;3.502;2023-06-14T02:15:54;17.60;99.90
31799;DHT22;18374;51.136;3.502;2023-06-14T02:18:23;17.60;99.90
31799;DHT22;18374;51.136;3.502;2023-06-14T02:20:51;17.50;99.90
31799;DHT22;18374;51.136;3.502;2023-06-14T02:23:18;17.40;99.90
31799;DHT22;18374;51.136;3.502;2023-06-14T02:25:46;17.40;99.90
31799;DHT22;18374;51.136;3.502;2023-06-14T02:28:14;17.40;99.90
31799;DHT22;18374;51.136;3.502;2023-06-14T02:30:42;17.30;99.90
31799;DHT22;18374;51.136;3.502;2023-06-14T02:33:10;17.30;99.90
31799;DHT22;18374;51.136;3.502;2023-06-14T02:35:40;17.20;99.90
31799;DHT22;18374;51.136;3.502;2023-06-14T02:38:08;17.20;99.90
31799;DHT22;18374;51.136;3.502;2023-06-14T02:40:36;17.30;99.90
31799;DHT22;18374;51.136;3.502;2023-06-14T02:43:04;17.20;99.90
31799;DHT22;18374;51.136;3.502;2023-06-14T02:45:32;17.10;99.90
31799;DHT22;18374;51.136;3.502;2023-06-14T02:48:00;17.10;99.90
31799;DHT22;18374;51.136;3.502;2023-06-14T02:50:28;17.00;99.90
31799;DHT22;18374;51.136;3.502;2023-06-14T02:52:57;16.90;99.90
31799;DHT22;18374;51.136;3.502;2023-06-14T02:55:25;17.00;99.90
31799;DHT22;18374;51.136;3.502;2023-06-14T02:57:53;17.00;99.90
31799;DHT22;18374;51.136;3.502;2023-06-14T03:00:21;17.00;99.90
31799;DHT22;18374;51.136;3.502;2023-06-14T03:02:51;17.00;99.90
31799;DHT22;18374;51.136;3.502;2023-06-14T03:05:19;17.00;99.90
31799;DHT22;18374;51.136;3.502;2023-06-14T03:07:49;17.00;99.90
31799;DHT22;18374;51.136;3.502;2023-06-14T03:10:18;16.90;99.90
31799;DHT22;18374;51.136;3.502;2023-06-14T03:12:46;16.80;99.90
31799;DHT22;18374;51.136;3.502;2023-06-14T03:15:15;16.80;99.90
31799;DHT22;18374;51.136;3.502;2023-06-14T03:17:47;16.90;99.90
31799;DHT22;18374;51.136;3.502;2023-06-14T03:20:17;16.90;99.90
31799;DHT22;18374;51.136;3.502;2023-06-14T03:22:47;16.90;99.90
31799;DHT22;18374;51.136;3.502;2023-06-14T03:25:16;16.90;99.90
31799;DHT22;18374;51.136;3.502;2023-06-14T03:27:45;17.00;99.90
31799;DHT22;18374;51.136;3.502;2023-06-14T03:30:13;17.00;99.90
31799;DHT22;18374;51.136;3.502;2023-06-14T03:32:45;16.90;99.90
31799;DHT22;18374;51.136;3.502;2023-06-14T03:35:14;16.90;99.90
31799;DHT22;18374;51.136;3.502;2023-06-14T03:37:47;16.90;99.90
31799;DHT22;18374;51.136;3.502;2023-06-14T03:40:17;16.80;99.90
31799;DHT22;18374;51.136;3.502;2023-06-14T03:42:50;16.90;99.90
31799;DHT22;18374;51.136;3.502;2023-06-14T03:45:19;16.90;99.90
31799;DHT22;18374;51.136;3.502;2023-06-14T03:47:48;16.90;99.90
31799;DHT22;18374;51.136;3.502;2023-06-14T03:50:17;16.90;99.90
31799;DHT22;18374;51.136;3.502;2023-06-14T03:52:48;16.80;99.90
31799;DHT22;18374;51.136;3.502;2023-06-14T03:55:17;16.80;99.90
31799;DHT22;18374;51.136;3.502;2023-06-14T03:57:48;16.80;99.90
31799;DHT22;18374;51.136;3.502;2023-06-14T04:00:17;16.80;99.90
31799;DHT22;18374;51.136;3.502;2023-06-14T04:02:45;16.90;99.90
31799;DHT22;18374;51.136;3.502;2023-06-14T04:05:13;16.90;99.90
31799;DHT22;18374;51.136;3.502;2023-06-14T04:07:47;16.90;99.90
31799;DHT22;18374;51.136;3.502;2023-06-14T04:10:16;16.80;99.90
31799;DHT22;18374;51.136;3.502;2023-06-14T04:12:45;16.70;99.90
31799;DHT22;18374;51.136;3.502;2023-06-14T04:15:13;16.80;99.90
31799;DHT22;18374;51.136;3.502;2023-06-14T04:17:49;16.80;99.90
31799;DHT22;18374;51.136;3.502;2023-06-14T04:20:20;16.80;99.90
31799;DHT22;18374;51.136;3.502;2023-06-14T04:22:49;16.80;99.90
31799;DHT22;18374;51.136;3.502;2023-06-14T04:25:17;16.80;99.90
31799;DHT22;18374;51.136;3.502;2023-06-14T04:27:51;16.80;99.90
31799;DHT22;18374;51.136;3.502;2023-06-14T04:30:20;16.70;99.90
31799;DHT22;18374;51.136;3.502;2023-06-14T04:32:53;16.70;99.90
31799;DHT22;18374;51.136;3.502;2023-06-14T04:35:21;16.70;99.90
31799;DHT22;18374;51.136;3.502;2023-06-14T04:37:51;16.80;99.90
31799;DHT22;18374;51.136;3.502;2023-06-14T04:40:21;16.80;99.90
31799;DHT22;18374;51.136;3.502;2023-06-14T04:42:49;16.80;99.90
31799;DHT22;18374;51.136;3.502;2023-06-14T04:45:19;16.90;99.90
31799;DHT22;18374;51.136;3.502;2023-06-14T04:47:47;16.90;99.90
31799;DHT22;18374;51.136;3.502;2023-06-14T04:50:15;16.90;99.90
31799;DHT22;18374;51.136;3.502;2023-06-14T04:52:45;17.00;99.90
31799;DHT22;18374;51.136;3.502;2023-06-14T04:55:13;17.00;99.90
31799;DHT22;18374;51.136;3.502;2023-06-14T04:57:42;17.10;99.90
31799;DHT22;18374;51.136;3.502;2023-06-14T05:00:10;17.10;99.90
31799;DHT22;18374;51.136;3.502;2023-06-14T05:02:39;17.10;99.90
31799;DHT22;18374;51.136;3.502;2023-06-14T05:05:08;17.20;99.90
31799;DHT22;18374;51.136;3.502;2023-06-14T05:07:36;17.20;99.90
31799;DHT22;18374;51.136;3.502;2023-06-14T05:10:09;17.30;99.80
31799;DHT22;18374;51.136;3.502;2023-06-14T05:12:37;17.30;99.90
31799;DHT22;18374;51.136;3.502;2023-06-14T05:15:08;17.30;99.50
31799;DHT22;18374;51.136;3.502;2023-06-14T05:17:38;17.40;99.80
31799;DHT22;18374;51.136;3.502;2023-06-14T05:20:08;17.30;99.30
31799;DHT22;18374;51.136;3.502;2023-06-14T05:22:37;17.40;99.90
31799;DHT22;18374;51.136;3.502;2023-06-14T05:25:05;17.30;99.90
31799;DHT22;18374;51.136;3.502;2023-06-14T05:27:33;17.40;99.90
31799;DHT22;18374;51.136;3.502;2023-06-14T05:30:03;17.40;99.90
31799;DHT22;18374;51.136;3.502;2023-06-14T05:32:31;17.50;98.40
31799;DHT22;18374;51.136;3.502;2023-06-14T05:34:59;17.60;98.20
31799;DHT22;18374;51.136;3.502;2023-06-14T05:37:27;17.80;99.60
31799;DHT22;18374;51.136;3.502;2023-06-14T05:39:54;17.90;98.90
31799;DHT22;18374;51.136;3.502;2023-06-14T05:42:22;18.00;98.20
31799;DHT22;18374;51.136;3.502;2023-06-14T05:44:50;18.10;98.30
31799;DHT22;18374;51.136;3.502;2023-06-14T05:47:18;18.10;98.60
31799;DHT22;18374;51.136;3.502;2023-06-14T05:49:45;18.20;98.10
31799;DHT22;18374;51.136;3.502;2023-06-14T05:52:13;18.30;97.70
31799;DHT22;18374;51.136;3.502;2023-06-14T05:54:41;18.40;98.40
31799;DHT22;18374;51.136;3.502;2023-06-14T05:57:08;18.50;96.80
31799;DHT22;18374;51.136;3.502;2023-06-14T05:59:36;18.60;96.80
31799;DHT22;18374;51.136;3.502;2023-06-14T06:02:04;18.60;97.10
31799;DHT22;18374;51.136;3.502;2023-06-14T06:04:32;18.80;96.90
31799;DHT22;18374;51.136;3.502;2023-06-14T06:07:00;18.80;96.30
31799;DHT22;18374;51.136;3.502;2023-06-14T06:09:28;19.00;96.40
31799;DHT22;18374;51.136;3.502;2023-06-14T06:11:55;19.00;96.60
31799;DHT22;18374;51.136;3.502;2023-06-14T06:14:23;19.20;97.50
31799;DHT22;18374;51.136;3.502;2023-06-14T06:16:51;19.30;96.30
31799;DHT22;18374;51.136;3.502;2023-06-14T06:19:20;19.30;96.90
31799;DHT22;18374;51.136;3.502;2023-06-14T06:21:48;19.40;96.30
31799;DHT22;18374;51.136;3.502;2023-06-14T06:24:15;19.50;96.30
31799;DHT22;18374;51.136;3.502;2023-06-14T06:26:43;19.70;95.40
31799;DHT22;18374;51.136;3.502;2023-06-14T06:29:11;19.80;95.90
31799;DHT22;18374;51.136;3.502;2023-06-14T06:31:39;19.90;96.00
31799;DHT22;18374;51.136;3.502;2023-06-14T06:34:07;20.00;96.10
31799;DHT22;18374;51.136;3.502;2023-06-14T06:36:34;20.10;95.60
31799;DHT22;18374;51.136;3.502;2023-06-14T06:39:02;20.20;95.20
31799;DHT22;18374;51.136;3.502;2023-06-14T06:41:38;20.30;94.40
31799;DHT22;18374;51.136;3.502;2023-06-14T06:44:07;20.40;94.10
31799;DHT22;18374;51.136;3.502;2023-06-14T06:46:35;20.60;94.30
31799;DHT22;18374;51.136;3.502;2023-06-14T06:49:07;20.70;93.70
31799;DHT22;18374;51.136;3.502;2023-06-14T06:51:35;20.70;94.00
31799;DHT22;18374;51.136;3.502;2023-06-14T06:54:04;20.80;94.80
31799;DHT22;18374;51.136;3.502;2023-06-14T06:56:33;20.80;94.80
31799;DHT22;18374;51.136;3.502;2023-06-14T06:59:02;21.00;92.30
31799;DHT22;18374;51.136;3.502;2023-06-14T07:01:30;21.20;93.00
31799;DHT22;18374;51.136;3.502;2023-06-14T07:03:58;21.30;93.80
31799;DHT22;18374;51.136;3.502;2023-06-14T07:06:25;21.40;93.10
31799;DHT22;18374;51.136;3.502;2023-06-14T07:08:54;21.70;92.90
31799;DHT22;18374;51.136;3.502;2023-06-14T07:11:22;21.80;92.90
31799;DHT22;18374;51.136;3.502;2023-06-14T07:13:49;21.80;92.60
31799;DHT22;18374;51.136;3.502;2023-06-14T07:16:18;22.00;92.60
31799;DHT22;18374;51.136;3.502;2023-06-14T07:18:46;22.10;91.20
31799;DHT22;18374;51.136;3.502;2023-06-14T07:21:13;22.20;90.30
31799;DHT22;18374;51.136;3.502;2023-06-14T07:23:41;22.40;90.80
31799;DHT22;18374;51.136;3.502;2023-06-14T07:26:09;22.50;90.80
31799;DHT22;18374;51.136;3.502;2023-06-14T07:28:37;22.80;88.40
31799;DHT22;18374;51.136;3.502;2023-06-14T07:31:04;22.90;86.10
31799;DHT22;18374;51.136;3.502;2023-06-14T07:33:32;23.00;87.60
31799;DHT22;18374;51.136;3.502;2023-06-14T07:36:00;23.20;85.40
31799;DHT22;18374;51.136;3.502;2023-06-14T07:38:28;23.30;88.80
31799;DHT22;18374;51.136;3.502;2023-06-14T07:40:55;23.30;90.70
31799;DHT22;18374;51.136;3.502;2023-06-14T07:43:23;23.30;90.50
31799;DHT22;18374;51.136;3.502;2023-06-14T07:45:51;23.30;91.10
31799;DHT22;18374;51.136;3.502;2023-06-14T07:48:33;23.30;89.30
31799;DHT22;18374;51.136;3.502;2023-06-14T07:51:02;23.50;89.70
31799;DHT22;18374;51.136;3.502;2023-06-14T07:53:31;23.50;86.20
31799;DHT22;18374;51.136;3.502;2023-06-14T07:55:59;23.50;87.90
31799;DHT22;18374;51.136;3.502;2023-06-14T07:58:27;23.70;86.70
31799;DHT22;18374;51.136;3.502;2023-06-14T08:00:55;24.00;85.30
31799;DHT22;18374;51.136;3.502;2023-06-14T08:03:22;24.20;80.20
31799;DHT22;18374;51.136;3.502;2023-06-14T08:05:51;24.40;81.50
31799;DHT22;18374;51.136;3.502;2023-06-14T08:08:19;24.60;87.40
31799;DHT22;18374;51.136;3.502;2023-06-14T08:10:47;24.70;87.20
31799;DHT22;18374;51.136;3.502;2023-06-14T08:13:15;24.70;84.00
31799;DHT22;18374;51.136;3.502;2023-06-14T08:15:43;24.70;84.40
31799;DHT22;18374;51.136;3.502;2023-06-14T08:18:11;24.70;82.70
31799;DHT22;18374;51.136;3.502;2023-06-14T08:20:39;24.80;83.00
31799;DHT22;18374;51.136;3.502;2023-06-14T08:23:07;25.00;78.90
31799;DHT22;18374;51.136;3.502;2023-06-14T08:25:36;25.10;77.40
31799;DHT22;18374;51.136;3.502;2023-06-14T08:28:04;25.20;75.60
31799;DHT22;18374;51.136;3.502;2023-06-14T08:30:32;25.30;79.10
31799;DHT22;18374;51.136;3.502;2023-06-14T08:33:00;25.30;78.40
31799;DHT22;18374;51.136;3.502;2023-06-14T08:35:42;25.40;75.50
31799;DHT22;18374;51.136;3.502;2023-06-14T08:38:10;25.60;74.80
31799;DHT22;18374;51.136;3.502;2023-06-14T08:40:40;25.70;78.80
31799;DHT22;18374;51.136;3.502;2023-06-14T08:43:09;25.60;77.10
31799;DHT22;18374;51.136;3.502;2023-06-14T08:45:37;25.50;77.60
31799;DHT22;18374;51.136;3.502;2023-06-14T08:48:07;25.70;74.10
31799;DHT22;18374;51.136;3.502;2023-06-14T08:50:36;26.00;74.00
31799;DHT22;18374;51.136;3.502;2023-06-14T08:53:11;26.00;72.50
31799;DHT22;18374;51.136;3.502;2023-06-14T08:55:46;26.00;71.80
31799;DHT22;18374;51.136;3.502;2023-06-14T08:58:15;26.20;72.60
31799;DHT22;18374;51.136;3.502;2023-06-14T09:00:43;26.40;70.00
31799;DHT22;18374;51.136;3.502;2023-06-14T09:03:12;26.60;74.70
31799;DHT22;18374;51.136;3.502;2023-06-14T09:05:43;26.60;75.20
31799;DHT22;18374;51.136;3.502;2023-06-14T09:08:12;26.50;73.90
31799;DHT22;18374;51.136;3.502;2023-06-14T09:10:40;26.50;72.90
31799;DHT22;18374;51.136;3.502;2023-06-14T09:13:08;26.60;70.90
31799;DHT22;18374;51.136;3.502;2023-06-14T09:15:36;26.80;66.50
31799;DHT22;18374;51.136;3.502;2023-06-14T09:18:04;27.00;66.80
31799;DHT22;18374;51.136;3.502;2023-06-14T09:20:33;27.10;76.90
31799;DHT22;18374;51.136;3.502;2023-06-14T09:23:02;27.00;68.90
31799;DHT22;18374;51.136;3.502;2023-06-14T09:25:31;26.70;69.10
31799;DHT22;18374;51.136;3.502;2023-06-14T09:28:07;26.90;65.60
31799;DHT22;18374;51.136;3.502;2023-06-14T09:30:37;27.10;65.70
31799;DHT22;18374;51.136;3.502;2023-06-14T09:33:05;27.10;64.00
31799;DHT22;18374;51.136;3.502;2023-06-14T09:35:33;27.30;62.90
31799;DHT22;18374;51.136;3.502;2023-06-14T09:38:01;27.20;66.50
31799;DHT22;18374;51.136;3.502;2023-06-14T09:40:34;27.30;65.00
31799;DHT22;18374;51.136;3.502;2023-06-14T09:43:07;27.50;65.60
31799;DHT22;18374;51.136;3.502;2023-06-14T09:45:41;27.60;65.50
31799;DHT22;18374;51.136;3.502;2023-06-14T09:48:13;27.60;67.30
31799;DHT22;18374;51.136;3.502;2023-06-14T09:50:50;27.60;64.70
31799;DHT22;18374;51.136;3.502;2023-06-14T09:53:21;27.40;61.30
31799;DHT22;18374;51.136;3.502;2023-06-14T09:55:52;27.40;58.50
31799;DHT22;18374;51.136;3.502;2023-06-14T09:58:23;27.40;60.30
31799;DHT22;18374;51.136;3.502;2023-06-14T10:00:54;27.60;63.00
31799;DHT22;18374;51.136;3.502;2023-06-14T10:03:28;27.70;62.80
31799;DHT22;18374;51.136;3.502;2023-06-14T10:06:10;27.80;60.00
31799;DHT22;18374;51.136;3.502;2023-06-14T10:08:40;27.80;62.20
31799;DHT22;18374;51.136;3.502;2023-06-14T10:11:08;27.90;58.70
31799;DHT22;18374;51.136;3.502;2023-06-14T10:13:36;27.80;58.50
31799;DHT22;18374;51.136;3.502;2023-06-14T10:16:45;27.60;59.50
31799;DHT22;18374;51.136;3.502;2023-06-14T10:22:05;28.00;60.90
31799;DHT22;18374;51.136;3.502;2023-06-14T10:24:41;27.90;59.00
31799;DHT22;18374;51.136;3.502;2023-06-14T10:27:13;28.00;59.10
31799;DHT22;18374;51.136;3.502;2023-06-14T10:32:22;28.30;58.00
31799;DHT22;18374;51.136;3.502;2023-06-14T10:34:57;28.40;56.00
31799;DHT22;18374;51.136;3.502;2023-06-14T10:37:26;28.20;55.20
31799;DHT22;18374;51.136;3.502;2023-06-14T10:39:54;28.00;55.30
31799;DHT22;18374;51.136;3.502;2023-06-14T10:42:33;27.90;54.30
31799;DHT22;18374;51.136;3.502;2023-06-14T10:45:01;27.70;55.80
31799;DHT22;18374;51.136;3.502;2023-06-14T10:47:35;27.60;53.40
31799;DHT22;18374;51.136;3.502;2023-06-14T10:50:07;27.60;56.80
31799;DHT22;18374;51.136;3.502;2023-06-14T10:52:41;27.50;57.10
31799;DHT22;18374;51.136;3.502;2023-06-14T10:55:14;27.40;56.50
31799;DHT22;18374;51.136;3.502;2023-06-14T10:57:52;27.60;61.10
31799;DHT22;18374;51.136;3.502;2023-06-14T11:00:24;27.80;52.90
31799;DHT22;18374;51.136;3.502;2023-06-14T11:10:59;27.50;56.60
31799;DHT22;18374;51.136;3.502;2023-06-14T11:13:28;27.40;56.50
31799;DHT22;18374;51.136;3.502;2023-06-14T11:15:59;27.50;57.10
31799;DHT22;18374;51.136;3.502;2023-06-14T11:18:28;27.60;56.30
31799;DHT22;18374;51.136;3.502;2023-06-14T11:20:56;27.80;55.70
31799;DHT22;18374;51.136;3.502;2023-06-14T11:23:23;28.20;61.20
31799;DHT22;18374;51.136;3.502;2023-06-14T11:25:52;27.90;56.00
31799;DHT22;18374;51.136;3.502;2023-06-14T11:28:19;27.70;57.30
31799;DHT22;18374;51.136;3.502;2023-06-14T11:30:59;27.70;56.40
31799;DHT22;18374;51.136;3.502;2023-06-14T11:33:28;27.60;59.10
31799;DHT22;18374;51.136;3.502;2023-06-14T11:35:56;27.80;60.00
31799;DHT22;18374;51.136;3.502;2023-06-14T11:38:25;27.80;56.90
31799;DHT22;18374;51.136;3.502;2023-06-14T11:40:58;27.70;55.70
31799;DHT22;18374;51.136;3.502;2023-06-14T11:43:26;27.80;56.80
31799;DHT22;18374;51.136;3.502;2023-06-14T11:45:54;28.00;59.90
31799;DHT22;18374;51.136;3.502;2023-06-14T11:48:42;27.80;59.80
31799;DHT22;18374;51.136;3.502;2023-06-14T11:51:10;27.90;57.80
31799;DHT22;18374;51.136;3.502;2023-06-14T11:53:38;28.10;59.10
31799;DHT22;18374;51.136;3.502;2023-06-14T11:56:07;28.40;56.30
31799;DHT22;18374;51.136;3.502;2023-06-14T11:58:35;28.60;54.60
31799;DHT22;18374;51.136;3.502;2023-06-14T12:01:05;28.90;53.30
31799;DHT22;18374;51.136;3.502;2023-06-14T12:03:34;28.80;53.90
31799;DHT22;18374;51.136;3.502;2023-06-14T12:06:07;28.40;53.40
31799;DHT22;18374;51.136;3.502;2023-06-14T12:08:37;28.10;58.90
31799;DHT22;18374;51.136;3.502;2023-06-14T12:11:15;28.30;53.60
31799;DHT22;18374;51.136;3.502;2023-06-14T12:13:44;28.10;54.30
31799;DHT22;18374;51.136;3.502;2023-06-14T12:16:12;27.90;56.60
31799;DHT22;18374;51.136;3.502;2023-06-14T12:18:41;28.10;54.30
31799;DHT22;18374;51.136;3.502;2023-06-14T12:21:11;28.10;53.10
31799;DHT22;18374;51.136;3.502;2023-06-14T12:23:49;28.00;54.90
31799;DHT22;18374;51.136;3.502;2023-06-14T12:26:19;27.80;55.80
31799;DHT22;18374;51.136;3.502;2023-06-14T12:28:48;27.60;58.80
31799;DHT22;18374;51.136;3.502;2023-06-14T12:31:16;27.70;58.70
31799;DHT22;18374;51.136;3.502;2023-06-14T12:33:44;27.50;58.30
31799;DHT22;18374;51.136;3.502;2023-06-14T12:36:16;27.50;56.70
31799;DHT22;18374;51.136;3.502;2023-06-14T12:38:44;27.60;59.70
31799;DHT22;18374;51.136;3.502;2023-06-14T12:41:13;27.60;56.40
31799;DHT22;18374;51.136;3.502;2023-06-14T12:43:42;27.50;57.40
31799;DHT22;18374;51.136;3.502;2023-06-14T12:46:09;27.70;56.00
31799;DHT22;18374;51.136;3.502;2023-06-14T12:48:37;27.80;57.00
31799;DHT22;18374;51.136;3.502;2023-06-14T12:51:05;28.20;56.60
31799;DHT22;18374;51.136;3.502;2023-06-14T12:53:33;28.60;55.10
31799;DHT22;18374;51.136;3.502;2023-06-14T12:56:00;28.80;54.20
31799;DHT22;18374;51.136;3.502;2023-06-14T12:58:28;28.60;55.10
31799;DHT22;18374;51.136;3.502;2023-06-14T13:00:56;28.20;57.90
31799;DHT22;18374;51.136;3.502;2023-06-14T13:03:24;28.10;58.70
31799;DHT22;18374;51.136;3.502;2023-06-14T13:05:52;28.30;57.70
31799;DHT22;18374;51.136;3.502;2023-06-14T13:08:19;28.20;57.10
31799;DHT22;18374;51.136;3.502;2023-06-14T13:10:51;28.00;57.60
31799;DHT22;18374;51.136;3.502;2023-06-14T13:13:19;27.70;59.70
31799;DHT22;18374;51.136;3.502;2023-06-14T13:15:47;27.70;59.60
31799;DHT22;18374;51.136;3.502;2023-06-14T13:18:17;27.90;57.90
31799;DHT22;18374;51.136;3.502;2023-06-14T13:20:46;28.00;56.40
31799;DHT22;18374;51.136;3.502;2023-06-14T13:23:16;28.00;56.90
31799;DHT22;18374;51.136;3.502;2023-06-14T13:25:44;27.90;58.20
31799;DHT22;18374;51.136;3.502;2023-06-14T13:28:11;27.80;57.50
31799;DHT22;18374;51.136;3.502;2023-06-14T13:30:39;27.60;57.90
31799;DHT22;18374;51.136;3.502;2023-06-14T13:33:07;27.50;57.70
31799;DHT22;18374;51.136;3.502;2023-06-14T13:35:35;27.30;59.50
31799;DHT22;18374;51.136;3.502;2023-06-14T13:38:03;27.20;59.70
31799;DHT22;18374;51.136;3.502;2023-06-14T13:40:31;27.20;57.90
31799;DHT22;18374;51.136;3.502;2023-06-14T13:42:58;27.60;60.20
31799;DHT22;18374;51.136;3.502;2023-06-14T13:45:27;27.60;58.30
31799;DHT22;18374;51.136;3.502;2023-06-14T13:47:55;27.70;58.60
31799;DHT22;18374;51.136;3.502;2023-06-14T13:50:22;27.80;55.60
31799;DHT22;18374;51.136;3.502;2023-06-14T13:52:50;27.90;57.40
31799;DHT22;18374;51.136;3.502;2023-06-14T13:55:18;27.70;56.90
31799;DHT22;18374;51.136;3.502;2023-06-14T13:57:45;27.70;57.00
31799;DHT22;18374;51.136;3.502;2023-06-14T14:00:14;27.60;58.00
31799;DHT22;18374;51.136;3.502;2023-06-14T14:02:42;27.70;58.70
31799;DHT22;18374;51.136;3.502;2023-06-14T14:05:10;27.70;58.20
31799;DHT22;18374;51.136;3.502;2023-06-14T14:07:38;27.90;57.70
31799;DHT22;18374;51.136;3.502;2023-06-14T14:10:07;28.00;56.70
31799;DHT22;18374;51.136;3.502;2023-06-14T14:12:35;27.90;53.70
31799;DHT22;18374;51.136;3.502;2023-06-14T14:15:06;27.90;54.30
31799;DHT22;18374;51.136;3.502;2023-06-14T14:17:40;28.00;56.30
31799;DHT22;18374;51.136;3.502;2023-06-14T14:20:09;28.00;56.60
31799;DHT22;18374;51.136;3.502;2023-06-14T14:22:43;28.10;54.40
31799;DHT22;18374;51.136;3.502;2023-06-14T14:25:11;28.30;54.10
31799;DHT22;18374;51.136;3.502;2023-06-14T14:27:39;28.30;55.80
31799;DHT22;18374;51.136;3.502;2023-06-14T14:30:07;28.00;57.10
31799;DHT22;18374;51.136;3.502;2023-06-14T14:32:35;27.70;56.10
31799;DHT22;18374;51.136;3.502;2023-06-14T14:35:03;27.50;56.40
31799;DHT22;18374;51.136;3.502;2023-06-14T14:37:32;27.30;55.30
31799;DHT22;18374;51.136;3.502;2023-06-14T14:39:59;27.30;58.00
31799;DHT22;18374;51.136;3.502;2023-06-14T14:42:27;27.20;55.80
31799;DHT22;18374;51.136;3.502;2023-06-14T14:44:55;27.20;56.20
31799;DHT22;18374;51.136;3.502;2023-06-14T14:47:23;27.30;55.80
31799;DHT22;18374;51.136;3.502;2023-06-14T14:49:51;27.30;55.40
31799;DHT22;18374;51.136;3.502;2023-06-14T14:52:19;27.30;59.30
31799;DHT22;18374;51.136;3.502;2023-06-14T14:54:51;27.40;58.50
31799;DHT22;18374;51.136;3.502;2023-06-14T14:57:18;27.20;58.10
31799;DHT22;18374;51.136;3.502;2023-06-14T14:59:46;27.10;57.70
31799;DHT22;18374;51.136;3.502;2023-06-14T15:02:14;27.10;55.20
31799;DHT22;18374;51.136;3.502;2023-06-14T15:04:41;27.30;55.80
31799;DHT22;18374;51.136;3.502;2023-06-14T15:07:09;27.60;55.50
31799;DHT22;18374;51.136;3.502;2023-06-14T15:09:38;28.10;55.20
31799;DHT22;18374;51.136;3.502;2023-06-14T15:12:06;28.20;54.50
31799;DHT22;18374;51.136;3.502;2023-06-14T15:14:34;28.30;54.90
31799;DHT22;18374;51.136;3.502;2023-06-14T15:17:02;28.50;54.70
31799;DHT22;18374;51.136;3.502;2023-06-14T15:19:33;28.50;52.60
31799;DHT22;18374;51.136;3.502;2023-06-14T15:22:03;28.30;54.90
31799;DHT22;18374;51.136;3.502;2023-06-14T15:24:33;28.00;54.40
31799;DHT22;18374;51.136;3.502;2023-06-14T15:27:11;27.60;55.40
31799;DHT22;18374;51.136;3.502;2023-06-14T15:29:43;27.30;53.90
31799;DHT22;18374;51.136;3.502;2023-06-14T15:32:13;27.10;54.10
31799;DHT22;18374;51.136;3.502;2023-06-14T15:34:41;27.10;55.10
31799;DHT22;18374;51.136;3.502;2023-06-14T15:37:09;27.20;55.40
31799;DHT22;18374;51.136;3.502;2023-06-14T15:39:37;27.10;54.30
31799;DHT22;18374;51.136;3.502;2023-06-14T15:42:05;27.10;54.60
31799;DHT22;18374;51.136;3.502;2023-06-14T15:44:33;27.00;55.20
31799;DHT22;18374;51.136;3.502;2023-06-14T15:47:02;27.10;55.90
31799;DHT22;18374;51.136;3.502;2023-06-14T15:49:30;27.30;53.10
31799;DHT22;18374;51.136;3.502;2023-06-14T15:51:57;27.50;53.10
31799;DHT22;18374;51.136;3.502;2023-06-14T15:54:25;27.50;54.80
31799;DHT22;18374;51.136;3.502;2023-06-14T15:56:53;27.40;55.40
31799;DHT22;18374;51.136;3.502;2023-06-14T15:59:21;27.30;53.50
31799;DHT22;18374;51.136;3.502;2023-06-14T16:01:49;27.20;53.20
31799;DHT22;18374;51.136;3.502;2023-06-14T16:04:16;27.30;54.10